createdAt,value
2019-03-11T00:00:45.204Z,15.03
2019-03-11T00:03:22.113Z,14.78
2019-03-11T00:05:51.618Z,10.95
2019-03-11T00:08:27.401Z,15.15
2019-03-11T00:10:56.902Z,13.78
2019-03-11T00:13:39.210Z,23.10
2019-03-11T00:16:08.800Z,19.65
2019-03-11T00:18:38.314Z,12.03
2019-03-11T00:21:14.168Z,16.60
2019-03-11T00:23:43.619Z,15.72
2019-03-11T00:26:25.645Z,16.27
2019-03-11T00:29:01.255Z,15.85
2019-03-11T00:31:30.759Z,19.37
2019-03-11T00:34:12.793Z,14.60
2019-03-11T00:36:42.300Z,12.10
2019-03-11T00:39:24.480Z,15.08
2019-03-11T00:41:53.917Z,12.63
2019-03-11T00:44:36.786Z,7.87
2019-03-11T00:47:12.518Z,17.30
2019-03-11T00:49:48.055Z,13.22
2019-03-11T00:52:24.048Z,14.65
2019-03-11T00:54:59.850Z,15.63
2019-03-11T00:57:36.201Z,17.17
2019-03-11T01:00:43.670Z,10.28
2019-03-11T01:03:19.497Z,17.35
2019-03-11T01:05:55.055Z,10.10
2019-03-11T01:08:30.782Z,11.65
2019-03-11T01:11:00.223Z,12.53
2019-03-11T01:13:36.209Z,13.68
2019-03-11T01:16:05.863Z,17.67
2019-03-11T01:18:41.672Z,15.48
2019-03-11T01:21:17.468Z,17.30
2019-03-11T01:23:53.236Z,11.03
2019-03-11T01:26:29.875Z,13.25
2019-03-11T01:29:06.498Z,14.65
2019-03-11T01:31:42.884Z,10.23
2019-03-11T01:34:19.402Z,15.13
2019-03-11T01:36:55.685Z,12.65
2019-03-11T01:39:31.376Z,12.33
2019-03-11T01:42:00.893Z,9.83
2019-03-11T01:44:37.358Z,12.50
2019-03-11T01:47:13.870Z,10.05
2019-03-11T01:49:49.908Z,8.03
2019-03-11T01:52:19.346Z,12.95
2019-03-11T01:54:48.784Z,15.83
2019-03-11T01:57:24.755Z,7.28
2019-03-11T01:59:54.194Z,13.72
2019-03-11T02:02:36.282Z,8.73
2019-03-11T02:05:07.308Z,10.13
2019-03-11T02:07:43.070Z,15.78
2019-03-11T02:10:24.340Z,9.78
2019-03-11T02:12:53.792Z,8.15
2019-03-11T02:15:29.543Z,8.20
2019-03-11T02:17:59.074Z,9.38
2019-03-11T02:20:41.595Z,17.05
2019-03-11T02:23:17.316Z,7.25
2019-03-11T02:25:52.790Z,8.10
2019-03-11T02:28:22.296Z,6.53
2019-03-11T02:30:58.351Z,9.68
2019-03-11T02:33:27.932Z,9.08
2019-03-11T02:35:57.388Z,7.20
2019-03-11T02:38:33.108Z,7.65
2019-03-11T02:41:15.557Z,9.15
2019-03-11T02:43:45.071Z,9.40
2019-03-11T02:46:27.175Z,10.53
2019-03-11T02:49:03.418Z,10.05
2019-03-11T02:51:39.775Z,5.20
2019-03-11T02:54:09.204Z,8.58
2019-03-11T02:56:45.329Z,5.35
2019-03-11T02:59:21.598Z,6.40
2019-03-11T03:02:05.234Z,9.33
2019-03-11T03:07:12.053Z,6.97
2019-03-11T03:09:41.804Z,11.97
2019-03-11T03:12:11.491Z,5.67
2019-03-11T03:14:47.153Z,2.33
2019-03-11T03:17:29.094Z,3.67
2019-03-11T03:19:58.523Z,5.37
2019-03-11T03:22:34.073Z,4.55
2019-03-11T03:25:11.037Z,5.35
2019-03-11T03:27:40.510Z,3.33
2019-03-11T03:30:26.165Z,7.12
2019-03-11T03:33:01.861Z,2.98
2019-03-11T03:35:38.410Z,2.55
2019-03-11T03:38:28.835Z,6.22
2019-03-11T03:40:58.991Z,4.00
2019-03-11T03:43:28.424Z,4.42
2019-03-11T03:46:18.586Z,4.70
2019-03-11T03:48:55.760Z,6.42
2019-03-11T03:51:25.200Z,5.17
2019-03-11T03:54:07.612Z,3.08
2019-03-11T03:56:44.135Z,5.72
2019-03-11T03:59:13.584Z,4.83
2019-03-11T04:01:49.302Z,4.45
2019-03-11T04:04:18.747Z,4.20
2019-03-11T04:06:54.774Z,4.58
2019-03-11T04:09:24.203Z,5.03
2019-03-11T04:11:53.636Z,8.00
2019-03-11T04:14:29.185Z,6.10
2019-03-11T04:16:58.833Z,5.75
2019-03-11T04:19:40.904Z,3.45
2019-03-11T04:22:10.469Z,5.95
2019-03-11T04:24:47.081Z,6.67
2019-03-11T04:27:30.477Z,6.30
2019-03-11T04:30:06.911Z,5.83
2019-03-11T04:32:36.411Z,7.92
2019-03-11T04:35:14.365Z,5.33
2019-03-11T04:37:43.939Z,5.53
2019-03-11T04:40:21.420Z,10.23
2019-03-11T04:42:50.923Z,8.85
2019-03-11T04:45:26.781Z,8.35
2019-03-11T04:48:03.219Z,10.38
2019-03-11T04:50:46.024Z,10.85
2019-03-11T04:53:22.190Z,8.03
2019-03-11T04:55:51.700Z,10.38
2019-03-11T04:58:21.138Z,10.72
2019-03-11T05:00:57.091Z,10.03
2019-03-11T05:03:26.594Z,7.45
2019-03-11T05:06:02.571Z,8.30
2019-03-11T05:08:32.004Z,8.40
2019-03-11T05:11:08.416Z,8.05
2019-03-11T05:13:37.887Z,9.08
2019-03-11T05:16:13.813Z,8.18
2019-03-11T05:18:49.277Z,4.53
2019-03-11T05:21:25.267Z,5.55
2019-03-11T05:23:54.711Z,4.92
2019-03-11T05:26:30.774Z,4.47
2019-03-11T05:29:07.220Z,7.78
2019-03-11T05:31:43.204Z,7.12
2019-03-11T05:34:12.646Z,7.05
2019-03-11T05:36:48.946Z,14.07
2019-03-11T05:39:18.391Z,18.05
2019-03-11T05:41:54.532Z,15.65
2019-03-11T05:44:24.038Z,15.13
2019-03-11T05:46:53.491Z,14.40
2019-03-11T05:49:29.891Z,12.47
2019-03-11T05:52:05.542Z,10.15
2019-03-11T05:54:41.634Z,10.55
2019-03-11T05:57:17.592Z,10.58
2019-03-11T05:59:47.029Z,8.03
2019-03-11T06:02:23.063Z,7.42
2019-03-11T06:04:52.502Z,6.42
2019-03-11T06:07:28.437Z,7.50
2019-03-11T06:09:57.886Z,8.48
2019-03-11T06:12:27.388Z,8.68
2019-03-11T06:15:03.310Z,14.47
2019-03-11T06:17:39.081Z,13.50
2019-03-11T06:20:18.201Z,10.15
2019-03-11T06:22:54.129Z,10.30
2019-03-11T06:25:30.422Z,7.45
2019-03-11T06:28:06.787Z,7.67
2019-03-11T06:30:43.591Z,7.00
2019-03-11T06:33:13.032Z,6.65
2019-03-11T06:35:42.481Z,4.70
2019-03-11T06:38:18.473Z,6.15
2019-03-11T06:40:47.939Z,8.83
2019-03-11T06:43:24.026Z,10.18
2019-03-11T06:45:53.453Z,7.55
2019-03-11T06:48:36.235Z,7.45
2019-03-11T06:51:18.792Z,8.45
2019-03-11T06:53:48.234Z,9.28
2019-03-11T06:56:24.278Z,7.67
2019-03-11T06:58:53.711Z,10.40
2019-03-11T07:01:29.859Z,9.35
2019-03-11T07:03:59.317Z,14.05
2019-03-11T07:06:35.428Z,10.95
2019-03-11T07:09:14.030Z,12.43
2019-03-11T07:11:43.666Z,7.58
2019-03-11T07:14:19.358Z,4.42
2019-03-11T07:16:54.948Z,7.12
2019-03-11T07:19:31.541Z,8.05
2019-03-11T07:22:07.382Z,10.23
2019-03-11T07:24:36.820Z,13.05
2019-03-11T07:27:13.281Z,8.18
2019-03-11T07:29:55.232Z,7.58
2019-03-11T07:32:24.668Z,5.85
2019-03-11T07:35:08.370Z,6.92
2019-03-11T07:37:38.580Z,8.40
2019-03-11T07:40:11.872Z,9.85
2019-03-11T07:45:24.337Z,9.85
2019-03-11T07:47:53.776Z,3.90
2019-03-11T07:50:36.006Z,4.12
2019-03-11T07:53:11.479Z,5.50
2019-03-11T07:55:47.462Z,9.73
2019-03-11T07:58:16.964Z,8.05
2019-03-11T08:00:53.802Z,9.93
2019-03-11T08:03:23.665Z,8.78
2019-03-11T08:06:00.126Z,6.95
2019-03-11T08:08:29.558Z,3.05
2019-03-11T08:11:05.999Z,3.58
2019-03-11T08:13:41.779Z,2.02
2019-03-11T08:16:11.219Z,4.20
2019-03-11T08:18:40.649Z,4.42
2019-03-11T08:21:16.430Z,2.75
2019-03-11T08:23:45.868Z,5.90
2019-03-11T08:26:15.301Z,1.47
2019-03-11T08:28:58.050Z,2.37
2019-03-11T08:31:33.910Z,1.63
2019-03-11T08:34:03.411Z,3.90
2019-03-11T08:36:39.991Z,6.35
2019-03-11T08:39:11.436Z,5.28
2019-03-11T08:41:40.938Z,3.30
2019-03-11T08:44:22.884Z,2.98
2019-03-11T08:46:52.332Z,3.98
2019-03-11T08:49:21.785Z,4.95
2019-03-11T08:51:58.589Z,6.42
2019-03-11T08:54:28.024Z,1.82
2019-03-11T08:57:04.298Z,3.05
2019-03-11T08:59:33.739Z,5.80
2019-03-11T09:02:10.281Z,2.27
2019-03-11T09:04:45.875Z,3.92
2019-03-11T09:07:15.319Z,4.15
2019-03-11T09:09:44.754Z,4.03
2019-03-11T09:12:21.206Z,4.47
2019-03-11T09:14:57.124Z,2.85
2019-03-11T09:17:32.667Z,4.95
2019-03-11T09:20:02.174Z,3.90
2019-03-11T09:22:38.654Z,3.83
2019-03-11T09:25:16.954Z,5.97
2019-03-11T09:27:53.508Z,5.30
2019-03-11T09:30:24.061Z,6.67
2019-03-11T09:33:08.412Z,7.65
2019-03-11T09:35:44.334Z,4.78
2019-03-11T09:38:20.779Z,4.42
2019-03-11T09:40:50.283Z,7.22
2019-03-11T09:43:27.342Z,6.12
2019-03-11T09:45:56.873Z,2.77
2019-03-11T09:48:32.892Z,8.90
2019-03-11T09:51:15.347Z,3.37
2019-03-11T09:53:50.784Z,4.25
2019-03-11T09:56:26.460Z,4.83
2019-03-11T09:59:02.286Z,4.65
2019-03-11T10:01:31.875Z,5.70
2019-03-11T10:04:09.518Z,5.28
2019-03-11T10:06:45.999Z,5.85
2019-03-11T10:09:22.516Z,5.25
2019-03-11T10:11:59.046Z,4.22
2019-03-11T10:14:28.484Z,2.10
2019-03-11T10:16:57.942Z,5.85
2019-03-11T10:19:34.230Z,4.03
2019-03-11T10:22:03.680Z,5.90
2019-03-11T10:24:39.695Z,3.90
2019-03-11T10:27:22.210Z,2.87
2019-03-11T10:29:57.856Z,3.85
2019-03-11T10:32:27.368Z,2.40
2019-03-11T10:35:03.134Z,5.25
2019-03-11T10:37:46.418Z,8.20
2019-03-11T10:40:37.984Z,5.70
2019-03-11T10:43:14.569Z,5.62
2019-03-11T10:45:50.518Z,3.25
2019-03-11T10:48:36.844Z,5.62
2019-03-11T10:50:58.375Z,2.70
2019-03-11T10:53:40.538Z,5.10
2019-03-11T10:56:16.082Z,3.02
2019-03-11T10:58:45.533Z,4.55
2019-03-11T11:01:22.006Z,6.87
2019-03-11T11:03:57.612Z,2.67
2019-03-11T11:06:33.332Z,4.08
2019-03-11T11:09:03.551Z,5.35
2019-03-11T11:11:39.615Z,3.77
2019-03-11T11:14:16.289Z,4.37
2019-03-11T11:16:46.591Z,1.80
2019-03-11T11:19:16.113Z,5.30
2019-03-11T11:21:51.789Z,5.62
2019-03-11T11:24:21.247Z,5.40
2019-03-11T11:26:50.744Z,4.85
2019-03-11T11:29:27.109Z,3.55
2019-03-11T11:32:03.103Z,4.95
2019-03-11T11:34:39.878Z,9.45
2019-03-11T11:37:16.196Z,5.17
2019-03-11T11:39:52.355Z,3.77
2019-03-11T11:42:21.934Z,4.70
2019-03-11T11:44:58.451Z,4.47
2019-03-11T11:47:34.817Z,2.50
2019-03-11T11:50:07.024Z,2.05
2019-03-11T11:52:43.049Z,4.03
2019-03-11T11:55:20.311Z,3.55
2019-03-11T11:57:56.498Z,3.05
2019-03-11T12:00:37.129Z,3.47
2019-03-11T12:03:13.773Z,6.95
2019-03-11T12:05:50.069Z,5.22
2019-03-11T12:08:19.501Z,3.27
2019-03-11T12:10:55.528Z,4.58
2019-03-11T12:13:32.200Z,4.62
2019-03-11T12:16:01.725Z,4.55
2019-03-11T12:18:37.767Z,4.42
2019-03-11T12:21:07.271Z,4.10
2019-03-11T12:23:46.704Z,3.65
2019-03-11T12:26:27.820Z,3.37
2019-03-11T12:28:57.257Z,2.67
2019-03-11T12:31:33.625Z,4.03
2019-03-11T12:34:16.903Z,3.90
2019-03-11T12:36:52.570Z,5.85
2019-03-11T12:39:22.217Z,2.72
2019-03-11T12:41:58.070Z,8.98
2019-03-11T12:44:27.577Z,3.47
2019-03-11T12:47:03.906Z,4.05
2019-03-11T12:49:33.407Z,6.78
2019-03-11T12:52:09.244Z,4.80
2019-03-11T12:54:45.329Z,8.70
2019-03-11T12:57:27.916Z,4.85
2019-03-11T12:59:57.424Z,4.60
2019-03-11T13:02:33.948Z,4.67
2019-03-11T13:05:04.029Z,2.17
2019-03-11T13:07:33.536Z,3.87
2019-03-11T13:10:10.549Z,7.72
2019-03-11T13:12:40.124Z,2.67
2019-03-11T13:15:20.009Z,4.20
2019-03-11T13:17:55.943Z,5.15
2019-03-11T13:20:48.294Z,8.03
2019-03-11T13:23:17.825Z,5.55
2019-03-11T13:25:53.971Z,2.08
2019-03-11T13:28:23.485Z,4.80
2019-03-11T13:30:59.860Z,2.17
2019-03-11T13:33:36.020Z,6.08
2019-03-11T13:36:08.344Z,5.70
2019-03-11T13:38:38.504Z,7.80
2019-03-11T13:41:21.079Z,3.85
2019-03-11T13:43:56.791Z,4.75
2019-03-11T13:46:26.444Z,4.33
2019-03-11T13:49:02.716Z,3.92
2019-03-11T13:51:32.154Z,3.42
2019-03-11T13:54:22.661Z,4.37
2019-03-11T13:57:12.085Z,4.00
2019-03-11T13:59:41.598Z,3.00
2019-03-11T14:02:17.352Z,6.83
2019-03-11T14:04:53.941Z,6.92
2019-03-11T14:07:23.386Z,7.10
2019-03-11T14:09:59.935Z,10.70
2019-03-11T14:12:29.386Z,9.00
2019-03-11T14:15:05.822Z,6.85
2019-03-11T14:17:35.556Z,7.45
2019-03-11T14:20:08.607Z,5.95
2019-03-11T14:22:44.736Z,4.90
2019-03-11T14:25:15.509Z,5.30
2019-03-11T14:27:45.099Z,5.47
2019-03-11T14:30:30.166Z,5.05
2019-03-11T14:32:59.739Z,3.90
2019-03-11T14:35:36.112Z,5.15
2019-03-11T14:38:05.701Z,5.17
2019-03-11T14:40:42.196Z,10.15
2019-03-11T14:43:11.727Z,7.10
2019-03-11T14:45:47.260Z,7.95
2019-03-11T14:48:16.781Z,5.50
2019-03-11T14:50:55.071Z,3.60
2019-03-11T14:53:24.634Z,3.55
2019-03-11T14:56:07.334Z,5.40
2019-03-11T14:58:49.847Z,8.05
2019-03-11T15:01:19.431Z,6.00
2019-03-11T15:03:48.887Z,4.92
2019-03-11T15:06:24.675Z,5.35
2019-03-11T15:09:00.559Z,5.78
2019-03-11T15:11:30.084Z,4.95
2019-03-11T15:14:06.469Z,6.80
2019-03-11T15:16:42.830Z,9.80
2019-03-11T15:19:21.457Z,14.10
2019-03-11T15:21:50.898Z,13.55
2019-03-11T15:24:27.006Z,8.50
2019-03-11T15:26:56.579Z,7.25
2019-03-11T15:29:26.395Z,6.85
2019-03-11T15:32:08.965Z,10.03
2019-03-11T15:34:38.411Z,6.85
2019-03-11T15:37:15.092Z,9.55
2019-03-11T15:39:50.806Z,11.55
2019-03-11T15:42:26.877Z,12.85
2019-03-11T15:45:02.918Z,9.78
2019-03-11T15:47:38.676Z,14.83
2019-03-11T15:50:27.500Z,6.67
2019-03-11T15:53:10.224Z,9.40
2019-03-11T15:55:46.829Z,6.97
2019-03-11T15:58:29.872Z,12.82
2019-03-11T16:00:59.406Z,8.68
2019-03-11T16:03:36.716Z,10.93
2019-03-11T16:06:13.303Z,9.70
2019-03-11T16:08:42.899Z,10.72
2019-03-11T16:11:19.804Z,18.12
2019-03-11T16:13:49.397Z,17.15
2019-03-11T16:16:25.148Z,19.40
2019-03-11T16:19:01.410Z,39.00
2019-03-11T16:21:38.678Z,38.50
2019-03-11T16:24:15.257Z,28.77
2019-03-11T16:26:51.590Z,24.85
2019-03-11T16:29:28.142Z,44.35
2019-03-11T16:31:57.670Z,54.48
2019-03-11T16:34:35.584Z,36.30
2019-03-11T16:37:12.078Z,26.35
2019-03-11T16:39:41.600Z,30.92
2019-03-11T16:42:11.266Z,28.70
2019-03-11T16:44:53.355Z,34.05
2019-03-11T16:47:23.144Z,27.50
2019-03-11T16:49:59.094Z,29.45
2019-03-11T16:52:28.689Z,35.58
2019-03-11T16:55:04.810Z,45.35
2019-03-11T16:57:41.043Z,46.58
2019-03-11T17:00:37.337Z,54.70
2019-03-11T17:03:07.580Z,48.42
2019-03-11T17:05:43.879Z,65.22
2019-03-11T17:08:13.546Z,70.15
2019-03-11T17:10:43.584Z,67.80
2019-03-11T17:13:20.035Z,53.30
2019-03-11T17:15:56.625Z,42.00
2019-03-11T17:18:26.071Z,109.50
2019-03-11T17:21:01.931Z,89.10
2019-03-11T17:23:38.280Z,75.92
2019-03-11T17:26:07.885Z,47.35
2019-03-11T17:28:44.054Z,62.30
2019-03-11T17:31:13.735Z,83.27
2019-03-11T17:33:50.581Z,47.53
2019-03-11T17:36:27.235Z,38.70
2019-03-11T17:39:03.778Z,70.22
2019-03-11T17:41:47.177Z,54.83
2019-03-11T17:44:22.979Z,36.50
2019-03-11T17:46:52.976Z,36.70
2019-03-11T17:49:29.618Z,31.48
2019-03-11T17:52:05.917Z,60.80
2019-03-11T17:54:42.233Z,37.80
2019-03-11T17:57:11.723Z,42.78
2019-03-11T17:59:54.014Z,39.48
2019-03-11T18:02:37.443Z,46.30
2019-03-11T18:05:14.266Z,41.08
2019-03-11T18:07:50.865Z,44.60
2019-03-11T18:10:26.644Z,41.55
2019-03-11T18:12:56.588Z,36.20
2019-03-11T18:15:33.266Z,46.00
2019-03-11T18:18:03.012Z,43.75
2019-03-11T18:20:39.588Z,40.60
2019-03-11T18:23:09.258Z,42.55
2019-03-11T18:25:45.117Z,53.75
2019-03-11T18:28:14.861Z,59.73
2019-03-11T18:30:51.990Z,41.00
2019-03-11T18:33:21.675Z,38.92
2019-03-11T18:35:57.984Z,36.30
2019-03-11T18:38:27.694Z,38.28
2019-03-11T18:41:04.233Z,42.08
2019-03-11T18:43:42.132Z,46.35
2019-03-11T18:46:05.022Z,44.83
2019-03-11T18:48:41.420Z,36.15
2019-03-11T18:51:17.998Z,32.70
2019-03-11T18:53:54.572Z,46.75
2019-03-11T18:56:30.581Z,62.05
2019-03-11T18:59:07.456Z,54.60
2019-03-11T19:01:43.751Z,30.15
2019-03-11T19:04:20.191Z,33.25
2019-03-11T19:06:50.048Z,48.65
2019-03-11T19:09:26.314Z,34.40
2019-03-11T19:12:02.908Z,45.28
2019-03-11T19:14:32.665Z,31.00
2019-03-11T19:17:09.319Z,29.05
2019-03-11T19:19:46.031Z,37.20
2019-03-11T19:22:16.554Z,32.10
2019-03-11T19:24:53.144Z,33.83
2019-03-11T19:27:29.253Z,33.33
2019-03-11T19:30:05.818Z,34.10
2019-03-11T19:32:49.165Z,36.08
2019-03-11T19:35:20.111Z,37.55
2019-03-11T19:37:56.523Z,38.30
2019-03-11T19:40:33.663Z,31.37
2019-03-11T19:43:03.493Z,32.23
2019-03-11T19:45:40.369Z,34.88
2019-03-11T19:48:10.272Z,36.17
2019-03-11T19:50:39.950Z,37.85
2019-03-11T19:53:16.500Z,35.40
2019-03-11T19:55:52.889Z,33.55
2019-03-11T19:58:36.194Z,37.28
2019-03-11T20:01:19.255Z,40.78
2019-03-11T20:03:55.034Z,45.00
2019-03-11T20:06:31.119Z,91.40
2019-03-11T20:09:01.043Z,150.05
2019-03-11T20:11:30.937Z,157.03
2019-03-11T20:14:07.106Z,157.15
2019-03-11T20:16:36.680Z,164.88
2019-03-11T20:19:13.108Z,119.42
2019-03-11T20:21:42.764Z,122.07
2019-03-11T20:24:12.300Z,92.78
2019-03-11T20:26:48.968Z,88.92
2019-03-11T20:29:25.051Z,96.78
2019-03-11T20:31:54.805Z,128.80
2019-03-11T20:34:24.494Z,93.90
2019-03-11T20:37:01.341Z,103.25
2019-03-11T20:39:37.664Z,111.10
2019-03-11T20:42:07.486Z,75.15
2019-03-11T20:44:43.588Z,90.55
2019-03-11T20:47:13.130Z,60.92
2019-03-11T20:49:42.705Z,75.03
2019-03-11T20:52:18.407Z,84.72
2019-03-11T20:54:47.855Z,89.17
2019-03-11T20:57:24.149Z,60.95
2019-03-11T21:00:00.837Z,82.53
2019-03-11T21:02:44.085Z,47.62
2019-03-11T21:05:35.357Z,43.70
2019-03-11T21:08:10.758Z,32.70
2019-03-11T21:10:40.412Z,31.82
2019-03-11T21:13:17.302Z,33.85
2019-03-11T21:15:46.932Z,26.45
2019-03-11T21:18:22.951Z,31.75
2019-03-11T21:21:04.214Z,30.90
2019-03-11T21:23:30.375Z,26.27
2019-03-11T21:25:59.969Z,25.00
2019-03-11T21:28:36.413Z,26.15
2019-03-11T21:31:06.018Z,27.40
2019-03-11T21:33:41.747Z,22.35
2019-03-11T21:36:25.066Z,25.05
2019-03-11T21:38:54.826Z,20.20
2019-03-11T21:41:30.999Z,25.80
2019-03-11T21:44:06.661Z,29.23
2019-03-11T21:46:36.251Z,30.88
2019-03-11T21:49:12.185Z,30.85
2019-03-11T21:51:48.726Z,29.82
2019-03-11T21:54:25.389Z,22.00
2019-03-11T21:56:55.105Z,28.38
2019-03-11T21:59:30.932Z,23.07
2019-03-11T22:02:00.430Z,24.25
2019-03-11T22:04:43.228Z,24.07
2019-03-11T22:07:12.816Z,23.20
2019-03-11T22:09:48.849Z,23.10
2019-03-11T22:12:24.879Z,29.50
2019-03-11T22:15:00.675Z,24.95
2019-03-11T22:17:30.198Z,23.75
2019-03-11T22:19:59.635Z,24.15
2019-03-11T22:22:36.124Z,19.57
2019-03-11T22:25:15.613Z,30.17
2019-03-11T22:27:51.267Z,25.70
2019-03-11T22:30:29.776Z,25.55
2019-03-11T22:33:06.322Z,25.95
2019-03-11T22:35:42.941Z,28.55
2019-03-11T22:38:12.421Z,23.27
2019-03-11T22:40:41.927Z,23.75
2019-03-11T22:43:17.928Z,18.70
2019-03-11T22:46:02.459Z,18.35
2019-03-11T22:48:31.906Z,16.95
2019-03-11T22:51:08.513Z,21.12
2019-03-11T22:53:37.958Z,21.68
2019-03-11T22:56:14.634Z,24.50
2019-03-11T22:58:44.146Z,22.35
2019-03-11T23:01:13.991Z,17.00
2019-03-11T23:03:50.799Z,16.00
2019-03-11T23:06:33.642Z,19.00
2019-03-11T23:09:04.372Z,21.52
2019-03-11T23:11:34.047Z,17.00
2019-03-11T23:14:10.299Z,20.05
2019-03-11T23:16:46.319Z,20.30
2019-03-11T23:19:15.774Z,17.65
2019-03-11T23:21:45.219Z,17.32
2019-03-11T23:24:21.376Z,16.75
2019-03-11T23:26:50.876Z,18.55
2019-03-11T23:29:20.342Z,16.70
2019-03-11T23:31:56.054Z,15.20
2019-03-11T23:34:31.577Z,17.50
2019-03-11T23:37:07.677Z,19.85
2019-03-11T23:39:43.219Z,21.70
2019-03-11T23:42:19.970Z,20.77
2019-03-11T23:44:49.416Z,19.23
2019-03-11T23:47:25.818Z,18.73
2019-03-11T23:49:55.272Z,19.98
2019-03-11T23:52:31.329Z,22.55
2019-03-11T23:55:16.147Z,22.20
2019-03-11T23:57:51.929Z,24.43
